Terminal Aerodrome Forecast
Issued by NWS New Orleans/Baton Rouge, LA

Home | Current Version | Previous Version | Text Only | Print | Product List | Glossary On
Versions: 1 2 3 4 5 6 7 8 9 10 11 12
000
FTUS44 KLIX 032320
TAFBTR
TAF
KBTR 032320Z 0400/0424 10004KT P6SM BKN070
     FM040300 11003KT P6SM SCT080
      TEMPO 0410/0413 4SM BR
     FM041300 07004KT P6SM FEW050
     FM041500 12010KT P6SM BKN040=

USA.gov is the U.S. government's official web portal to all federal, state and local government web resources and services.